Diamond Reef — WDH7513 — position and weather

sailwx.info

Track history (hours):
 
Tides and Currents Weather Stations Pressure Air Temp Water Temp Dewpoint Dewpoint Depression Visibility Wind Speed Wind Dir Waves Ship Positions

Diamond Reef

Owner: Diamond B Industries, LLC, New Iberia, LA. More information available from US FCC via Universal Licensing System and Coast Guard Vessel Documentation Center.

Last reported at 2018-Jun-21 17:31 UTC. Time now 2018-Jun-25 09:48 UTC.
Position N 42°31' W 070°53'.

; draft 2 m.

Type: Towing. MMSI: 367648920.

Date/timePositionNaut miles runAvg speedWind from/ knotsBaromVisibWave heightAir tempDewpointWater temp
2018-Jun-21 17:31N 42°31' W 070°53'0 0.3
2018-Jun-21 17:30N 42°31' W 070°53'2 5.0
2018-Jun-21 17:01N 42°32' W 070°51'3 5.7
2018-Jun-21 16:31N 42°34' W 070°47'1 1.4
2018-Jun-21 16:00N 42°34' W 070°47'1 1.5
2018-Jun-21 15:30N 42°34' W 070°47'0 0.0
2018-Jun-21 15:00N 42°34' W 070°47'0 0.0
2018-Jun-21 14:30N 42°34' W 070°47'1 2.7
2018-Jun-21 14:01N 42°33' W 070°49'2 3.1
2018-Jun-21 13:30N 42°32' W 070°51'2 3.3
2018-Jun-21 13:00N 42°31' W 070°52'1 1.6
2018-Jun-21 12:30N 42°31' W 070°53'0 0.0
2018-Jun-21 12:00N 42°31' W 070°53'0 0.0
2018-Jun-21 11:30N 42°31' W 070°53'0 0.0
2018-Jun-20 18:16N 42°31' W 070°53'1 3.7
2018-Jun-20 18:00N 42°31' W 070°52'2 0.3
2018-Jun-20 12:50N 42°32' W 070°54'1 2.7
2018-Jun-20 12:25N 42°33' W 070°55'0 0.0
2018-Jun-20 11:54N 42°33' W 070°55'  
2018-Jun-12 14:38N 42°33' W 070°55'0 0.0
2018-Jun-12 14:15N 42°33' W 070°55'  
Track history (hours):
 
Tides and Currents Weather Stations Pressure Air Temp Water Temp Dewpoint Dewpoint Depression Visibility Wind Speed Wind Dir Waves Ship Positions

Diamond Reef

Owner: Diamond B Industries, LLC, New Iberia, LA. More information available from US FCC via Universal Licensing System and Coast Guard Vessel Documentation Center.

Last reported at 2018-Jun-21 17:31 UTC. Time now 2018-Jun-25 09:48 UTC.
Position N 42°31' W 070°53'.

; draft 2 m.

Type: Towing. MMSI: 367648920.

Date/timePositionNaut miles runAvg speedWind from/ knotsBaromVisibWave heightAir tempDewpointWater temp
2018-Jun-21 17:31N 42°31' W 070°53'0 0.3
2018-Jun-21 17:30N 42°31' W 070°53'2 5.0
2018-Jun-21 17:01N 42°32' W 070°51'3 5.7
2018-Jun-21 16:31N 42°34' W 070°47'1 1.4
2018-Jun-21 16:00N 42°34' W 070°47'1 1.5
2018-Jun-21 15:30N 42°34' W 070°47'0 0.0
2018-Jun-21 15:00N 42°34' W 070°47'0 0.0
2018-Jun-21 14:30N 42°34' W 070°47'1 2.7
2018-Jun-21 14:01N 42°33' W 070°49'2 3.1
2018-Jun-21 13:30N 42°32' W 070°51'2 3.3
2018-Jun-21 13:00N 42°31' W 070°52'1 1.6
2018-Jun-21 12:30N 42°31' W 070°53'0 0.0
2018-Jun-21 12:00N 42°31' W 070°53'0 0.0
2018-Jun-21 11:30N 42°31' W 070°53'0 0.0
2018-Jun-20 18:16N 42°31' W 070°53'1 3.7
2018-Jun-20 18:00N 42°31' W 070°52'2 0.3
2018-Jun-20 12:50N 42°32' W 070°54'1 2.7
2018-Jun-20 12:25N 42°33' W 070°55'0 0.0
2018-Jun-20 11:54N 42°33' W 070°55'  
2018-Jun-12 14:38N 42°33' W 070°55'0 0.0
2018-Jun-12 14:15N 42°33' W 070°55'  

Dump ship's entire track history